createdAt,value
2023-02-14T00:00:42.883Z,36.68
2023-02-14T00:03:09.548Z,36.54
2023-02-14T00:05:36.243Z,36.94
2023-02-14T00:08:02.905Z,37.37
2023-02-14T00:10:29.557Z,37.44
2023-02-14T00:12:56.078Z,37.42
2023-02-14T00:15:23.021Z,37.49
2023-02-14T00:17:55.261Z,37.15
2023-02-14T00:20:22.840Z,37.13
2023-02-14T00:22:49.749Z,36.87
2023-02-14T00:25:16.696Z,37.03
2023-02-14T00:27:43.306Z,36.74
2023-02-14T00:30:12.812Z,36.52
2023-02-14T00:32:40.607Z,36.75
2023-02-14T00:35:09.276Z,36.53
2023-02-14T00:37:36.749Z,36.55
2023-02-14T00:40:05.209Z,36.56
2023-02-14T00:42:32.007Z,36.40
2023-02-14T00:44:58.555Z,36.12
2023-02-14T00:47:25.241Z,36.22
2023-02-14T00:49:51.910Z,36.36
2023-02-14T00:52:18.604Z,36.22
2023-02-14T00:54:45.194Z,36.07
2023-02-14T00:57:13.818Z,36.30
2023-02-14T00:59:40.383Z,36.19
2023-02-14T01:02:07.255Z,36.15
2023-02-14T01:04:34.454Z,35.88
2023-02-14T01:07:01.041Z,35.99
2023-02-14T01:09:27.730Z,35.98
2023-02-14T01:11:54.438Z,35.77
2023-02-14T01:14:21.008Z,35.89
2023-02-14T01:16:49.531Z,36.13
2023-02-14T01:19:16.722Z,35.61
2023-02-14T01:21:43.952Z,35.42
2023-02-14T01:24:12.064Z,35.64
2023-02-14T01:26:39.482Z,35.61
2023-02-14T01:29:06.488Z,35.40
2023-02-14T01:31:35.060Z,35.49
2023-02-14T01:34:02.684Z,35.36
2023-02-14T01:36:32.910Z,35.25
2023-02-14T01:39:02.486Z,35.28
2023-02-14T01:41:32.774Z,35.07
2023-02-14T01:44:06.531Z,35.02
2023-02-14T01:46:36.470Z,34.96
2023-02-14T01:49:21.949Z,35.10
2023-02-14T01:52:33.473Z,34.92
2023-02-14T01:55:05.202Z,35.24
2023-02-14T01:57:44.035Z,35.08
2023-02-14T02:00:29.969Z,34.99
2023-02-14T02:02:58.767Z,34.95
2023-02-14T02:05:26.102Z,34.81
2023-02-14T02:07:58.904Z,34.85
2023-02-14T02:10:27.854Z,34.85
2023-02-14T02:12:55.014Z,35.04
2023-02-14T02:15:24.326Z,34.87
2023-02-14T02:18:08.752Z,34.83
2023-02-14T02:20:44.087Z,34.73
2023-02-14T02:23:41.808Z,34.80
2023-02-14T02:26:43.501Z,34.91
2023-02-14T02:29:48.593Z,34.65
2023-02-14T02:32:42.885Z,34.66
2023-02-14T02:35:37.619Z,34.68
2023-02-14T02:38:33.692Z,34.55
2023-02-14T02:41:09.352Z,34.43
2023-02-14T02:43:36.945Z,34.59
2023-02-14T02:46:29.754Z,34.75
2023-02-14T02:49:04.650Z,34.82
2023-02-14T02:52:03.093Z,34.78
2023-02-14T02:54:37.738Z,34.68
2023-02-14T02:57:09.282Z,34.64
2023-02-14T02:59:41.800Z,34.72
2023-02-14T03:02:23.628Z,34.64
2023-02-14T03:04:59.870Z,34.38
2023-02-14T03:07:41.317Z,34.36
2023-02-14T03:10:16.162Z,34.47
2023-02-14T03:13:11.964Z,34.38
2023-02-14T03:15:53.773Z,34.45
2023-02-14T03:18:39.046Z,34.29
2023-02-14T03:21:42.720Z,34.39
2023-02-14T03:24:27.698Z,34.03
2023-02-14T03:27:22.999Z,34.17
2023-02-14T03:30:17.990Z,34.05
2023-02-14T03:33:01.650Z,34.02
2023-02-14T03:35:47.261Z,34.13
2023-02-14T03:38:26.029Z,33.99
2023-02-14T03:40:58.279Z,34.13
2023-02-14T03:43:35.613Z,34.17
2023-02-14T03:46:11.828Z,34.00
2023-02-14T03:48:41.347Z,33.97
2023-02-14T03:51:11.128Z,34.07
2023-02-14T03:53:43.779Z,34.07
2023-02-14T03:56:10.401Z,33.96
2023-02-14T03:58:43.662Z,33.78
2023-02-14T04:01:20.867Z,33.80
2023-02-14T04:03:48.853Z,33.93
2023-02-14T04:06:18.541Z,33.60
2023-02-14T04:08:45.205Z,33.80
2023-02-14T04:11:12.288Z,33.65
2023-02-14T04:13:39.476Z,33.90
2023-02-14T04:16:07.005Z,33.61
2023-02-14T04:18:52.349Z,33.82
2023-02-14T04:21:18.943Z,33.80
2023-02-14T04:23:45.450Z,33.52
2023-02-14T04:26:12.075Z,33.76
2023-02-14T04:28:39.737Z,33.57
2023-02-14T04:31:07.093Z,33.68
2023-02-14T04:33:34.201Z,33.58
2023-02-14T04:36:01.291Z,33.49
2023-02-14T04:38:28.030Z,33.54
2023-02-14T04:40:54.702Z,33.56
2023-02-14T04:43:21.240Z,33.42
2023-02-14T04:45:47.828Z,33.47
2023-02-14T04:48:14.485Z,33.49
2023-02-14T04:50:41.222Z,33.48
2023-02-14T04:53:07.761Z,33.37
2023-02-14T04:55:37.033Z,33.23
2023-02-14T04:58:03.590Z,33.39
2023-02-14T05:00:30.248Z,33.43
2023-02-14T05:02:56.802Z,33.34
2023-02-14T05:05:23.354Z,33.24
2023-02-14T05:07:49.899Z,33.54
2023-02-14T05:10:16.740Z,33.55
2023-02-14T05:12:43.644Z,33.74
2023-02-14T05:15:10.444Z,33.82
2023-02-14T05:17:37.289Z,34.18
2023-02-14T05:20:07.348Z,34.26
2023-02-14T05:22:33.901Z,34.92
2023-02-14T05:25:00.535Z,34.97
2023-02-14T05:27:27.178Z,35.11
2023-02-14T05:29:53.935Z,35.20
2023-02-14T05:32:21.197Z,36.13
2023-02-14T05:34:47.789Z,36.59
2023-02-14T05:37:14.399Z,37.08
2023-02-14T05:39:43.584Z,37.25
2023-02-14T05:42:10.164Z,37.24
2023-02-14T05:44:36.730Z,36.90
2023-02-14T05:47:03.502Z,36.76
2023-02-14T05:49:30.012Z,36.72
2023-02-14T05:51:56.682Z,36.56
2023-02-14T05:54:23.268Z,36.45
2023-02-14T05:56:49.880Z,36.37
2023-02-14T05:59:16.441Z,35.91
2023-02-14T06:01:43.109Z,35.87
2023-02-14T06:04:09.677Z,35.46
2023-02-14T06:06:36.904Z,35.49
2023-02-14T06:09:03.815Z,35.40
2023-02-14T06:11:30.441Z,35.25
2023-02-14T06:13:57.428Z,35.14
2023-02-14T06:16:24.112Z,34.92
2023-02-14T06:18:50.624Z,35.03
2023-02-14T06:21:17.226Z,34.81
2023-02-14T06:23:43.778Z,34.66
2023-02-14T06:26:10.453Z,34.78
2023-02-14T06:28:36.999Z,34.50
2023-02-14T06:31:04.179Z,34.71
2023-02-14T06:33:30.926Z,34.51
2023-02-14T06:35:57.534Z,34.73
2023-02-14T06:38:24.104Z,34.55
2023-02-14T06:40:50.773Z,34.59
2023-02-14T06:43:17.271Z,34.53
2023-02-14T06:45:43.988Z,34.58
2023-02-14T06:48:10.553Z,34.90
2023-02-14T06:50:37.317Z,34.52
2023-02-14T06:53:03.873Z,34.80
2023-02-14T06:55:30.472Z,35.12
2023-02-14T06:57:57.159Z,35.09
2023-02-14T07:00:23.833Z,34.92
2023-02-14T07:02:50.421Z,34.89
2023-02-14T07:05:18.941Z,34.95
2023-02-14T07:07:46.367Z,34.93
2023-02-14T07:10:13.827Z,34.70
2023-02-14T07:12:40.699Z,34.61
2023-02-14T07:15:09.479Z,34.80
2023-02-14T07:17:36.005Z,34.97
2023-02-14T07:20:04.053Z,34.81
2023-02-14T07:22:30.718Z,34.59
2023-02-14T07:24:57.453Z,34.69
2023-02-14T07:27:24.194Z,34.57
2023-02-14T07:29:50.972Z,34.75
2023-02-14T07:32:17.736Z,34.48
2023-02-14T07:34:44.542Z,34.56
2023-02-14T07:37:11.194Z,34.50
2023-02-14T07:39:37.822Z,34.91
2023-02-14T07:42:04.376Z,35.23
2023-02-14T07:44:32.214Z,35.52
2023-02-14T07:46:58.733Z,35.48
2023-02-14T07:49:25.384Z,35.29
2023-02-14T07:51:52.027Z,35.21
2023-02-14T07:54:20.269Z,35.10
2023-02-14T07:56:46.944Z,35.12
2023-02-14T07:59:13.558Z,35.07
2023-02-14T08:01:40.258Z,34.80
2023-02-14T08:04:07.139Z,34.98
2023-02-14T08:06:33.919Z,34.66
2023-02-14T08:09:01.669Z,34.84
2023-02-14T08:11:46.964Z,34.51
2023-02-14T08:14:13.736Z,34.54
2023-02-14T08:16:40.364Z,34.60
2023-02-14T08:19:06.994Z,34.62
2023-02-14T08:21:33.928Z,34.95
2023-02-14T08:24:00.824Z,35.39
2023-02-14T08:26:27.530Z,35.59
2023-02-14T08:28:56.664Z,35.25
2023-02-14T08:31:35.699Z,35.75
2023-02-14T08:34:04.535Z,35.84
2023-02-14T08:36:31.106Z,35.75
2023-02-14T08:38:57.851Z,35.30
2023-02-14T08:41:24.573Z,35.65
2023-02-14T08:43:51.319Z,35.48
2023-02-14T08:46:18.107Z,35.41
2023-02-14T08:48:44.778Z,35.60
2023-02-14T08:51:17.137Z,35.53
2023-02-14T08:53:44.396Z,35.40
2023-02-14T08:56:17.242Z,35.33
2023-02-14T08:58:43.911Z,35.25
2023-02-14T09:01:17.951Z,35.23
2023-02-14T09:03:45.118Z,35.35
2023-02-14T09:06:16.886Z,35.43
2023-02-14T09:08:44.860Z,35.36
2023-02-14T09:11:14.621Z,35.54
2023-02-14T09:13:42.610Z,35.60
2023-02-14T09:16:11.764Z,35.41
2023-02-14T09:18:38.935Z,35.05
2023-02-14T09:21:14.726Z,34.57
2023-02-14T09:23:41.934Z,34.58
2023-02-14T09:26:11.152Z,34.51
2023-02-14T09:28:38.635Z,34.25
2023-02-14T09:31:13.577Z,34.92
2023-02-14T09:33:41.351Z,34.85
2023-02-14T09:36:26.901Z,35.18
2023-02-14T09:38:55.703Z,35.44
2023-02-14T09:41:31.203Z,35.58
2023-02-14T09:44:04.584Z,35.57
2023-02-14T09:46:42.325Z,35.79
2023-02-14T09:49:15.915Z,35.80
2023-02-14T09:51:48.627Z,36.56
2023-02-14T09:54:22.093Z,36.83
2023-02-14T09:56:55.825Z,37.05
2023-02-14T09:59:31.320Z,37.36
2023-02-14T10:02:03.896Z,37.43
2023-02-14T10:05:08.949Z,37.77
2023-02-14T10:08:06.902Z,37.70
2023-02-14T10:10:39.645Z,37.46
2023-02-14T10:13:29.782Z,37.51
2023-02-14T10:16:03.500Z,37.84
2023-02-14T10:18:46.436Z,38.03
2023-02-14T10:21:23.466Z,37.67
2023-02-14T10:23:57.652Z,37.81
2023-02-14T10:26:32.665Z,37.80
2023-02-14T10:28:59.262Z,37.91
2023-02-14T10:31:25.864Z,37.67
2023-02-14T10:34:00.844Z,37.56
2023-02-14T10:36:36.558Z,37.71
2023-02-14T10:39:40.671Z,37.42
2023-02-14T10:42:25.161Z,37.49
2023-02-14T10:45:03.736Z,37.51
2023-02-14T10:48:08.273Z,36.96
2023-02-14T10:50:46.855Z,36.96
2023-02-14T10:53:28.018Z,36.87
2023-02-14T10:56:01.283Z,36.91
2023-02-14T10:58:32.447Z,36.87
2023-02-14T11:01:05.550Z,36.87
2023-02-14T11:03:34.865Z,36.77
2023-02-14T11:06:01.413Z,36.52
2023-02-14T11:08:35.089Z,36.66
2023-02-14T11:11:07.482Z,36.62
2023-02-14T11:13:37.160Z,36.43
2023-02-14T11:16:39.926Z,36.47
2023-02-14T11:19:19.554Z,36.69
2023-02-14T11:21:47.712Z,36.41
2023-02-14T11:24:31.943Z,36.29
2023-02-14T11:27:10.773Z,36.21
2023-02-14T11:29:43.536Z,36.07
2023-02-14T11:32:20.417Z,35.50
2023-02-14T11:35:00.482Z,35.46
2023-02-14T11:37:28.742Z,35.44
2023-02-14T11:39:58.342Z,35.42
2023-02-14T11:42:40.539Z,35.54
2023-02-14T11:45:08.695Z,35.67
2023-02-14T11:47:42.901Z,35.63
2023-02-14T11:50:24.617Z,35.03
2023-02-14T11:52:54.707Z,35.31
2023-02-14T11:55:35.878Z,35.07
2023-02-14T11:58:05.755Z,34.72
2023-02-14T12:00:33.761Z,34.64
2023-02-14T12:03:04.717Z,34.92
2023-02-14T12:05:35.353Z,34.54
2023-02-14T12:08:05.243Z,34.39
2023-02-14T12:10:33.759Z,34.67
2023-02-14T12:13:04.498Z,34.33
2023-02-14T12:15:42.451Z,34.17
2023-02-14T12:18:09.167Z,34.45
2023-02-14T12:20:44.115Z,34.27
2023-02-14T12:23:33.646Z,34.36
2023-02-14T12:26:13.413Z,33.97
2023-02-14T12:28:50.822Z,34.02
2023-02-14T12:31:18.678Z,34.25
2023-02-14T12:33:46.865Z,34.00
2023-02-14T12:36:47.158Z,33.93
2023-02-14T12:39:32.502Z,33.76
2023-02-14T12:42:00.168Z,33.65
2023-02-14T12:45:02.167Z,33.58
2023-02-14T12:47:31.625Z,33.58
2023-02-14T12:50:17.696Z,33.74
2023-02-14T12:52:56.712Z,33.59
2023-02-14T12:55:29.190Z,33.45
2023-02-14T12:58:19.863Z,33.53
2023-02-14T13:00:56.866Z,33.73
2023-02-14T13:04:01.344Z,33.64
2023-02-14T13:06:35.448Z,33.47
2023-02-14T13:09:17.185Z,33.35
2023-02-14T13:11:52.978Z,33.52
2023-02-14T13:14:36.337Z,33.62
2023-02-14T13:17:21.674Z,33.60
2023-02-14T13:20:00.387Z,33.33
2023-02-14T13:22:30.103Z,33.57
2023-02-14T13:25:31.679Z,33.40
2023-02-14T13:28:01.763Z,33.66
2023-02-14T13:30:32.415Z,33.73
2023-02-14T13:33:06.705Z,33.33
2023-02-14T13:35:37.237Z,33.45
2023-02-14T13:38:08.401Z,33.43
2023-02-14T13:40:36.473Z,33.45
2023-02-14T13:43:03.919Z,33.34
2023-02-14T13:45:32.699Z,33.48
2023-02-14T13:48:10.943Z,33.59
2023-02-14T13:50:54.574Z,33.65
2023-02-14T13:53:40.508Z,33.60
2023-02-14T13:56:31.054Z,33.71
2023-02-14T13:59:00.468Z,33.49
2023-02-14T14:01:35.722Z,33.55
2023-02-14T14:04:23.491Z,33.42
2023-02-14T14:07:13.712Z,33.66
2023-02-14T14:09:40.261Z,33.74
2023-02-14T14:12:26.705Z,33.51
2023-02-14T14:15:05.720Z,33.77
2023-02-14T14:17:33.618Z,33.79
2023-02-14T14:20:02.388Z,33.89
2023-02-14T14:22:29.435Z,33.79
2023-02-14T14:25:05.718Z,33.56
2023-02-14T14:27:35.861Z,33.75
2023-02-14T14:30:07.630Z,33.73
2023-02-14T14:32:38.382Z,33.70
2023-02-14T14:35:25.529Z,33.91
2023-02-14T14:37:57.743Z,33.98
2023-02-14T14:40:32.194Z,34.25
2023-02-14T14:43:09.788Z,34.13
2023-02-14T14:45:36.510Z,34.20
2023-02-14T14:48:10.056Z,34.20
2023-02-14T14:50:36.980Z,34.07
2023-02-14T14:53:09.716Z,34.05
2023-02-14T14:55:38.101Z,34.13
2023-02-14T14:58:09.083Z,34.37
2023-02-14T15:00:38.525Z,34.63
2023-02-14T15:03:11.849Z,34.71
2023-02-14T15:05:42.507Z,34.56
2023-02-14T15:08:21.585Z,34.65
2023-02-14T15:10:55.720Z,34.66
2023-02-14T15:13:57.446Z,34.65
2023-02-14T15:16:28.662Z,34.89
2023-02-14T15:19:10.527Z,34.90
2023-02-14T15:21:40.291Z,34.63
2023-02-14T15:24:13.385Z,34.77
2023-02-14T15:26:44.366Z,34.64
2023-02-14T15:29:22.388Z,34.62
2023-02-14T15:31:49.981Z,34.85
2023-02-14T15:34:24.423Z,34.73
2023-02-14T15:36:54.004Z,34.68
2023-02-14T15:39:25.796Z,34.58
2023-02-14T15:41:54.002Z,34.70
2023-02-14T15:44:23.143Z,34.53
2023-02-14T15:46:55.965Z,34.76
2023-02-14T15:49:30.099Z,34.82
2023-02-14T15:51:57.022Z,34.47
2023-02-14T15:54:45.723Z,34.45
2023-02-14T15:57:23.947Z,34.54
2023-02-14T15:59:51.201Z,34.34
2023-02-14T16:02:37.838Z,34.37
2023-02-14T16:05:17.787Z,34.41
2023-02-14T16:08:22.502Z,34.41
2023-02-14T16:11:02.657Z,34.34
2023-02-14T16:13:42.014Z,34.31
2023-02-14T16:16:11.224Z,34.32
2023-02-14T16:18:43.707Z,34.21
2023-02-14T16:21:12.321Z,34.27
2023-02-14T16:23:39.231Z,34.22
2023-02-14T16:26:06.951Z,34.18
2023-02-14T16:28:36.797Z,34.34
2023-02-14T16:31:10.229Z,34.26
2023-02-14T16:33:39.516Z,34.09
2023-02-14T16:36:27.844Z,34.09
2023-02-14T16:38:58.140Z,34.04
2023-02-14T16:41:27.678Z,34.27
2023-02-14T16:43:55.189Z,33.96
2023-02-14T16:46:25.603Z,34.16
2023-02-14T16:48:52.866Z,34.07
2023-02-14T16:51:25.326Z,33.94
2023-02-14T16:53:52.581Z,33.92
2023-02-14T16:56:46.601Z,33.99
2023-02-14T16:59:13.276Z,34.08
2023-02-14T17:01:40.968Z,33.97
2023-02-14T17:04:07.785Z,33.95
2023-02-14T17:06:40.029Z,33.97
2023-02-14T17:09:11.555Z,33.94
2023-02-14T17:11:48.255Z,33.92
2023-02-14T17:14:19.773Z,34.02
2023-02-14T17:16:49.300Z,34.05
2023-02-14T17:19:17.813Z,33.95
2023-02-14T17:21:44.643Z,33.98
2023-02-14T17:24:11.310Z,33.97
2023-02-14T17:26:38.157Z,34.13
2023-02-14T17:29:06.776Z,34.08
2023-02-14T17:31:34.578Z,34.04
2023-02-14T17:34:01.348Z,34.00
2023-02-14T17:36:28.245Z,33.88
2023-02-14T17:38:57.570Z,34.00
2023-02-14T17:41:26.546Z,33.97
2023-02-14T17:44:00.178Z,33.80
2023-02-14T17:46:28.808Z,33.85
2023-02-14T17:48:56.624Z,33.88
2023-02-14T17:51:24.261Z,33.92
2023-02-14T17:53:51.419Z,33.92
2023-02-14T17:56:21.943Z,34.38
2023-02-14T17:58:51.317Z,34.72
2023-02-14T18:01:25.363Z,34.98
2023-02-14T18:03:53.808Z,35.60
2023-02-14T18:06:21.273Z,35.92
2023-02-14T18:08:49.915Z,36.04
2023-02-14T18:11:18.815Z,35.94
2023-02-14T18:13:46.478Z,35.85
2023-02-14T18:16:18.602Z,35.63
2023-02-14T18:18:51.047Z,35.64
2023-02-14T18:21:21.077Z,35.50
2023-02-14T18:23:48.360Z,35.54
2023-02-14T18:26:16.396Z,35.30
2023-02-14T18:28:43.104Z,35.31
2023-02-14T18:31:12.716Z,35.12
2023-02-14T18:33:39.882Z,35.03
2023-02-14T18:36:12.605Z,35.15
2023-02-14T18:38:41.067Z,34.87
2023-02-14T18:41:10.234Z,34.90
2023-02-14T18:43:37.393Z,34.88
2023-02-14T18:46:05.420Z,35.00
2023-02-14T18:48:32.776Z,34.82
2023-02-14T18:51:37.280Z,34.99
2023-02-14T18:54:05.729Z,34.85
2023-02-14T18:56:38.491Z,34.69
2023-02-14T18:59:08.222Z,34.69
2023-02-14T19:01:38.483Z,34.81
2023-02-14T19:04:08.668Z,34.58
2023-02-14T19:06:36.189Z,34.59
2023-02-14T19:09:07.780Z,34.75
2023-02-14T19:11:38.677Z,34.48
2023-02-14T19:14:12.607Z,34.42
2023-02-14T19:16:43.879Z,34.67
2023-02-14T19:19:11.337Z,34.48
2023-02-14T19:21:38.538Z,34.39
2023-02-14T19:24:07.147Z,34.52
2023-02-14T19:26:39.922Z,34.44
2023-02-14T19:29:12.300Z,34.48
2023-02-14T19:31:40.991Z,34.31
2023-02-14T19:34:14.728Z,34.31
2023-02-14T19:36:41.467Z,34.46
2023-02-14T19:39:08.361Z,34.33
2023-02-14T19:41:39.677Z,34.29
2023-02-14T19:44:09.099Z,34.42
2023-02-14T19:46:40.166Z,34.41
2023-02-14T19:49:08.034Z,34.35
2023-02-14T19:51:36.104Z,34.62
2023-02-14T19:54:12.798Z,34.89
2023-02-14T19:56:42.671Z,35.16
2023-02-14T19:59:10.503Z,35.36
2023-02-14T20:01:46.712Z,35.17
2023-02-14T20:04:20.258Z,35.09
2023-02-14T20:06:49.270Z,35.17
2023-02-14T20:09:19.888Z,35.10
2023-02-14T20:11:52.011Z,35.27
2023-02-14T20:17:12.190Z,35.09
2023-02-14T20:19:39.088Z,35.09
2023-02-14T20:22:08.245Z,34.84
2023-02-14T20:24:38.239Z,35.04
2023-02-14T20:27:08.186Z,34.96
2023-02-14T20:29:36.110Z,35.16
2023-02-14T20:32:05.009Z,34.98
2023-02-14T20:34:31.735Z,34.97
2023-02-14T20:37:01.918Z,34.86
2023-02-14T20:39:34.935Z,34.90
2023-02-14T20:42:08.413Z,34.73
2023-02-14T20:44:35.476Z,34.78
2023-02-14T20:47:08.038Z,34.77
2023-02-14T20:49:37.839Z,35.29
2023-02-14T20:52:07.270Z,35.64
2023-02-14T20:54:34.016Z,35.93
2023-02-14T20:57:00.607Z,35.98
2023-02-14T20:59:28.632Z,36.75
2023-02-14T21:01:59.569Z,36.22
2023-02-14T21:04:27.035Z,36.27
2023-02-14T21:06:55.191Z,36.41
2023-02-14T21:09:24.824Z,36.25
2023-02-14T21:11:54.128Z,36.28
2023-02-14T21:14:21.331Z,36.30
2023-02-14T21:16:48.337Z,36.48
2023-02-14T21:19:18.578Z,36.37
2023-02-14T21:21:45.917Z,36.28
2023-02-14T21:24:14.773Z,36.27
2023-02-14T21:26:42.406Z,36.19
2023-02-14T21:29:09.481Z,36.25
2023-02-14T21:31:37.810Z,35.96
2023-02-14T21:34:05.026Z,35.95
2023-02-14T21:36:35.595Z,35.83
2023-02-14T21:39:04.457Z,35.84
2023-02-14T21:41:31.731Z,35.83
2023-02-14T21:44:00.052Z,35.84
2023-02-14T21:46:31.864Z,36.18
2023-02-14T21:49:20.263Z,36.18
2023-02-14T21:51:47.516Z,36.55
2023-02-14T21:54:14.295Z,36.58
2023-02-14T21:56:41.580Z,36.69
2023-02-14T21:59:09.634Z,36.78
2023-02-14T22:01:37.732Z,36.90
2023-02-14T22:04:09.545Z,37.05
2023-02-14T22:06:38.759Z,37.93
2023-02-14T22:09:05.904Z,41.23
2023-02-14T22:11:32.829Z,42.81
2023-02-14T22:14:00.274Z,43.20
2023-02-14T22:16:27.075Z,43.24
2023-02-14T22:18:53.662Z,42.76
2023-02-14T22:21:23.571Z,42.38
2023-02-14T22:23:50.808Z,42.14
2023-02-14T22:26:18.760Z,41.79
2023-02-14T22:28:48.141Z,41.37
2023-02-14T22:31:16.253Z,40.98
2023-02-14T22:33:43.599Z,40.65
2023-02-14T22:36:12.516Z,40.18
2023-02-14T22:38:39.311Z,40.15
2023-02-14T22:41:20.608Z,39.69
2023-02-14T22:43:47.885Z,39.48
2023-02-14T22:46:17.439Z,39.42
2023-02-14T22:48:44.203Z,39.34
2023-02-14T22:51:28.784Z,39.02
2023-02-14T22:53:58.522Z,38.92
2023-02-14T22:56:31.077Z,38.49
2023-02-14T22:59:00.019Z,38.65
2023-02-14T23:01:27.103Z,38.62
2023-02-14T23:03:58.485Z,38.22
2023-02-14T23:06:27.408Z,38.14
2023-02-14T23:08:55.151Z,37.98
2023-02-14T23:11:28.173Z,37.99
2023-02-14T23:14:14.481Z,38.27
2023-02-14T23:17:00.992Z,37.63
2023-02-14T23:19:49.893Z,37.71
2023-02-14T23:22:22.410Z,37.42
2023-02-14T23:24:50.960Z,37.54
2023-02-14T23:27:20.122Z,37.99
2023-02-14T23:29:46.875Z,38.54
2023-02-14T23:32:14.115Z,38.91
2023-02-14T23:34:45.930Z,39.20
2023-02-14T23:37:13.990Z,39.11
2023-02-14T23:39:41.521Z,38.71
2023-02-14T23:42:11.031Z,38.64
2023-02-14T23:44:37.986Z,38.62
2023-02-14T23:47:07.156Z,38.58
2023-02-14T23:49:35.616Z,38.96
2023-02-14T23:52:02.569Z,38.79
2023-02-14T23:54:29.142Z,38.90
2023-02-14T23:56:57.433Z,39.33
2023-02-14T23:59:24.373Z,39.97
